KCAE/CAE METAR and TAF weather

Enter ICAO airport designator
Station Type Date Time Source
KCAE METAR 2019/12/13 00:56 UTC NOAA

KCAE 130056Z 06009KT 9SM -RA OVC025 08/M01 A3043 RMK AO2 RAB35 SLP306 P0000 T00781011


Station Type Date Time Source
KCAE Decoded METAR 2019/12/13 00:56 UTC NOAA

COLUMBIA METROPOLITAN AIRPORT , SC, United States (KCAE) 33-57N 081-07W 73M
Dec 12, 2019 - 07:56 PM EST / 2019.12.13 0056 UTC
Wind: from the ENE (060 degrees) at 10 MPH (9 KT):0
Visibility: 9 mile(s):0
Sky conditions: overcast
Weather: light rain
Precipitation last hour: A trace
Temperature: 46.0 F (7.8 C)
Dew Point: 30.0 F (-1.1 C)
Relative Humidity: 53%
Pressure (altimeter): 30.43 in. Hg (1030 hPa)
ob: KCAE 130056Z 06009KT 9SM -RA OVC025 08/M01 A3043 RMK AO2 RAB35 SLP306 P0000 T00781011
cycle: 1

Station Type Date Time Source
KCAE TAF 2019/12/12 23:39 UTC NOAA

TAF
AMD KCAE 122236Z 1223/1318 05010KT P6SM -RA OVC025
FM130400 04010KT 5SM -SHRA OVC015
FM131000 04010KT 2SM SHRA BR OVC006

Example: see airport list